sensor_id;sensor_type;location;lat;lon;timestamp;temperature;humidity
26909;DHT22;14477;51.038;4.588;2022-08-11T00:00:39;24.10;43.40
26909;DHT22;14477;51.038;4.588;2022-08-11T00:03:09;24.00;44.20
26909;DHT22;14477;51.038;4.588;2022-08-11T00:05:45;23.90;43.40
26909;DHT22;14477;51.038;4.588;2022-08-11T00:08:21;23.90;44.40
26909;DHT22;14477;51.038;4.588;2022-08-11T00:11:05;23.80;44.30
26909;DHT22;14477;51.038;4.588;2022-08-11T00:13:42;23.70;44.00
26909;DHT22;14477;51.038;4.588;2022-08-11T00:16:18;23.70;44.60
26909;DHT22;14477;51.038;4.588;2022-08-11T00:18:50;23.60;44.30
26909;DHT22;14477;51.038;4.588;2022-08-11T00:21:17;23.60;44.10
26909;DHT22;14477;51.038;4.588;2022-08-11T00:23:50;23.50;44.00
26909;DHT22;14477;51.038;4.588;2022-08-11T00:26:17;23.40;44.30
26909;DHT22;14477;51.038;4.588;2022-08-11T00:28:44;23.40;44.30
26909;DHT22;14477;51.038;4.588;2022-08-11T00:31:30;23.30;44.40
26909;DHT22;14477;51.038;4.588;2022-08-11T00:33:58;23.30;45.80
26909;DHT22;14477;51.038;4.588;2022-08-11T00:36:48;23.20;44.80
26909;DHT22;14477;51.038;4.588;2022-08-11T00:39:18;23.20;45.90
26909;DHT22;14477;51.038;4.588;2022-08-11T00:42:14;23.20;45.80
26909;DHT22;14477;51.038;4.588;2022-08-11T00:45:03;23.10;46.20
26909;DHT22;14477;51.038;4.588;2022-08-11T01:07:02;22.70;47.00
26909;DHT22;14477;51.038;4.588;2022-08-11T01:23:44;22.50;47.60
26909;DHT22;14477;51.038;4.588;2022-08-11T01:43:51;22.10;47.80
26909;DHT22;14477;51.038;4.588;2022-08-11T01:46:38;22.00;48.60
26909;DHT22;14477;51.038;4.588;2022-08-11T01:52:08;21.80;48.10
26909;DHT22;14477;51.038;4.588;2022-08-11T02:00:08;21.70;48.80
26909;DHT22;14477;51.038;4.588;2022-08-11T02:11:23;21.50;49.60
26909;DHT22;14477;51.038;4.588;2022-08-11T02:19:35;21.30;49.80
26909;DHT22;14477;51.038;4.588;2022-08-11T02:22:34;21.20;48.80
26909;DHT22;14477;51.038;4.588;2022-08-11T02:25:30;21.20;50.00
26909;DHT22;14477;51.038;4.588;2022-08-11T02:28:24;21.10;48.90
26909;DHT22;14477;51.038;4.588;2022-08-11T02:34:37;21.00;50.90
26909;DHT22;14477;51.038;4.588;2022-08-11T02:37:41;20.90;50.60
26909;DHT22;14477;51.038;4.588;2022-08-11T02:40:35;20.90;51.20
26909;DHT22;14477;51.038;4.588;2022-08-11T02:43:17;20.80;51.10
26909;DHT22;14477;51.038;4.588;2022-08-11T02:48:32;20.70;49.70
26909;DHT22;14477;51.038;4.588;2022-08-11T02:54:35;20.60;51.50
26909;DHT22;14477;51.038;4.588;2022-08-11T02:57:11;20.50;51.40
26909;DHT22;14477;51.038;4.588;2022-08-11T03:02:23;20.50;51.50
26909;DHT22;14477;51.038;4.588;2022-08-11T03:14:08;20.20;52.50
26909;DHT22;14477;51.038;4.588;2022-08-11T03:17:31;20.20;52.00
26909;DHT22;14477;51.038;4.588;2022-08-11T03:20:22;20.20;52.60
26909;DHT22;14477;51.038;4.588;2022-08-11T03:26:10;20.00;51.10
26909;DHT22;14477;51.038;4.588;2022-08-11T03:33:50;19.90;51.60
26909;DHT22;14477;51.038;4.588;2022-08-11T03:36:50;19.80;52.40
26909;DHT22;14477;51.038;4.588;2022-08-11T03:47:36;19.70;53.90
26909;DHT22;14477;51.038;4.588;2022-08-11T03:58:27;19.60;53.80
26909;DHT22;14477;51.038;4.588;2022-08-11T04:01:20;19.50;52.60
26909;DHT22;14477;51.038;4.588;2022-08-11T04:09:53;19.40;53.60
26909;DHT22;14477;51.038;4.588;2022-08-11T04:15:34;19.30;55.00
26909;DHT22;14477;51.038;4.588;2022-08-11T04:46:56;19.00;56.20
26909;DHT22;14477;51.038;4.588;2022-08-11T05:01:52;18.90;55.80
26909;DHT22;14477;51.038;4.588;2022-08-11T05:13:03;18.90;55.60
26909;DHT22;14477;51.038;4.588;2022-08-11T05:15:56;19.00;55.50
26909;DHT22;14477;51.038;4.588;2022-08-11T05:18:50;19.00;56.50
26909;DHT22;14477;51.038;4.588;2022-08-11T05:21:35;19.00;56.70
26909;DHT22;14477;51.038;4.588;2022-08-11T05:24:40;19.00;55.70
26909;DHT22;14477;51.038;4.588;2022-08-11T05:27:37;19.00;57.50
26909;DHT22;14477;51.038;4.588;2022-08-11T05:30:28;19.10;57.00
26909;DHT22;14477;51.038;4.588;2022-08-11T05:33:22;19.10;56.70
26909;DHT22;14477;51.038;4.588;2022-08-11T05:36:17;19.10;57.30
26909;DHT22;14477;51.038;4.588;2022-08-11T05:38:58;19.10;57.30
26909;DHT22;14477;51.038;4.588;2022-08-11T05:41:43;19.20;57.00
26909;DHT22;14477;51.038;4.588;2022-08-11T05:44:28;19.20;56.50
26909;DHT22;14477;51.038;4.588;2022-08-11T05:47:24;19.30;56.70
26909;DHT22;14477;51.038;4.588;2022-08-11T05:50:14;19.40;58.00
26909;DHT22;14477;51.038;4.588;2022-08-11T05:53:02;19.40;57.50
26909;DHT22;14477;51.038;4.588;2022-08-11T05:55:47;19.50;57.10
26909;DHT22;14477;51.038;4.588;2022-08-11T05:58:35;19.50;57.10
26909;DHT22;14477;51.038;4.588;2022-08-11T06:01:01;19.60;57.40
26909;DHT22;14477;51.038;4.588;2022-08-11T06:03:29;19.70;57.40
26909;DHT22;14477;51.038;4.588;2022-08-11T06:05:58;19.70;57.50
26909;DHT22;14477;51.038;4.588;2022-08-11T06:08:32;19.80;57.60
26909;DHT22;14477;51.038;4.588;2022-08-11T06:11:03;19.90;58.60
26909;DHT22;14477;51.038;4.588;2022-08-11T06:13:30;20.00;57.90
26909;DHT22;14477;51.038;4.588;2022-08-11T06:15:56;20.10;57.70
26909;DHT22;14477;51.038;4.588;2022-08-11T06:18:23;20.20;57.70
26909;DHT22;14477;51.038;4.588;2022-08-11T06:20:51;20.20;57.70
26909;DHT22;14477;51.038;4.588;2022-08-11T06:23:19;20.30;57.80
26909;DHT22;14477;51.038;4.588;2022-08-11T06:25:47;20.40;57.80
26909;DHT22;14477;51.038;4.588;2022-08-11T06:28:15;20.50;57.80
26909;DHT22;14477;51.038;4.588;2022-08-11T06:30:44;20.60;57.80
26909;DHT22;14477;51.038;4.588;2022-08-11T06:33:17;20.70;57.80
26909;DHT22;14477;51.038;4.588;2022-08-11T06:39:05;20.90;58.30
26909;DHT22;14477;51.038;4.588;2022-08-11T06:41:51;21.10;58.40
26909;DHT22;14477;51.038;4.588;2022-08-11T06:44:28;21.20;58.00
26909;DHT22;14477;51.038;4.588;2022-08-11T06:46:54;21.30;57.90
26909;DHT22;14477;51.038;4.588;2022-08-11T06:49:33;21.40;57.50
26909;DHT22;14477;51.038;4.588;2022-08-11T06:52:17;21.50;57.70
26909;DHT22;14477;51.038;4.588;2022-08-11T06:54:49;21.60;57.30
26909;DHT22;14477;51.038;4.588;2022-08-11T06:57:21;21.70;57.60
26909;DHT22;14477;51.038;4.588;2022-08-11T07:00:07;21.90;57.30
26909;DHT22;14477;51.038;4.588;2022-08-11T07:03:06;22.00;57.20
26909;DHT22;14477;51.038;4.588;2022-08-11T07:05:43;22.20;57.70
26909;DHT22;14477;51.038;4.588;2022-08-11T07:14:10;22.50;57.30
26909;DHT22;14477;51.038;4.588;2022-08-11T07:16:56;22.70;56.90
26909;DHT22;14477;51.038;4.588;2022-08-11T07:19:25;22.80;56.70
26909;DHT22;14477;51.038;4.588;2022-08-11T07:22:12;23.00;56.70
26909;DHT22;14477;51.038;4.588;2022-08-11T07:25:02;23.20;56.70
26909;DHT22;14477;51.038;4.588;2022-08-11T07:28:16;23.30;56.50
26909;DHT22;14477;51.038;4.588;2022-08-11T07:31:09;23.50;56.40
26909;DHT22;14477;51.038;4.588;2022-08-11T07:36:49;23.90;55.70
26909;DHT22;14477;51.038;4.588;2022-08-11T07:39:24;24.00;55.40
26909;DHT22;14477;51.038;4.588;2022-08-11T07:41:53;24.20;55.30
26909;DHT22;14477;51.038;4.588;2022-08-11T07:44:20;24.30;55.30
26909;DHT22;14477;51.038;4.588;2022-08-11T07:46:48;24.50;55.10
26909;DHT22;14477;51.038;4.588;2022-08-11T07:49:35;24.60;54.90
26909;DHT22;14477;51.038;4.588;2022-08-11T07:52:21;24.80;54.90
26909;DHT22;14477;51.038;4.588;2022-08-11T07:55:06;25.00;55.00
26909;DHT22;14477;51.038;4.588;2022-08-11T07:57:33;25.10;54.80
26909;DHT22;14477;51.038;4.588;2022-08-11T08:00:18;25.30;55.10
26909;DHT22;14477;51.038;4.588;2022-08-11T08:03:04;25.60;55.30
26909;DHT22;14477;51.038;4.588;2022-08-11T08:05:49;25.90;55.10
26909;DHT22;14477;51.038;4.588;2022-08-11T08:08:34;26.20;55.00
26909;DHT22;14477;51.038;4.588;2022-08-11T08:11:20;26.50;54.70
26909;DHT22;14477;51.038;4.588;2022-08-11T08:14:07;26.90;54.20
26909;DHT22;14477;51.038;4.588;2022-08-11T08:16:53;27.20;53.60
26909;DHT22;14477;51.038;4.588;2022-08-11T08:19:39;27.50;53.80
26909;DHT22;14477;51.038;4.588;2022-08-11T08:22:10;27.80;52.70
26909;DHT22;14477;51.038;4.588;2022-08-11T08:24:38;28.10;52.40
26909;DHT22;14477;51.038;4.588;2022-08-11T08:27:07;28.30;52.50
26909;DHT22;14477;51.038;4.588;2022-08-11T08:29:36;28.60;52.50
26909;DHT22;14477;51.038;4.588;2022-08-11T08:32:25;29.00;52.50
26909;DHT22;14477;51.038;4.588;2022-08-11T08:34:53;29.50;52.90
26909;DHT22;14477;51.038;4.588;2022-08-11T08:37:21;29.90;52.70
26909;DHT22;14477;51.038;4.588;2022-08-11T08:39:49;30.40;52.40
26909;DHT22;14477;51.038;4.588;2022-08-11T08:42:25;31.00;52.40
26909;DHT22;14477;51.038;4.588;2022-08-11T08:45:10;31.50;50.00
26909;DHT22;14477;51.038;4.588;2022-08-11T08:47:45;32.10;50.70
26909;DHT22;14477;51.038;4.588;2022-08-11T08:50:16;32.80;48.80
26909;DHT22;14477;51.038;4.588;2022-08-11T08:52:53;33.40;48.80
26909;DHT22;14477;51.038;4.588;2022-08-11T08:55:20;34.00;48.00
26909;DHT22;14477;51.038;4.588;2022-08-11T08:57:48;34.50;48.20
26909;DHT22;14477;51.038;4.588;2022-08-11T09:00:15;35.00;46.40
26909;DHT22;14477;51.038;4.588;2022-08-11T09:02:43;35.50;45.50
26909;DHT22;14477;51.038;4.588;2022-08-11T09:05:09;36.00;44.60
26909;DHT22;14477;51.038;4.588;2022-08-11T09:07:36;36.30;43.60
26909;DHT22;14477;51.038;4.588;2022-08-11T09:10:04;36.70;42.20
26909;DHT22;14477;51.038;4.588;2022-08-11T09:12:31;37.10;41.40
26909;DHT22;14477;51.038;4.588;2022-08-11T09:14:59;37.40;40.40
26909;DHT22;14477;51.038;4.588;2022-08-11T09:19:59;37.90;38.70
26909;DHT22;14477;51.038;4.588;2022-08-11T09:22:26;38.20;37.80
26909;DHT22;14477;51.038;4.588;2022-08-11T09:25:12;38.40;38.20
26909;DHT22;14477;51.038;4.588;2022-08-11T09:27:58;38.70;37.80
26909;DHT22;14477;51.038;4.588;2022-08-11T09:30:26;38.90;37.20
26909;DHT22;14477;51.038;4.588;2022-08-11T09:32:53;39.20;36.40
26909;DHT22;14477;51.038;4.588;2022-08-11T09:35:32;39.40;36.30
26909;DHT22;14477;51.038;4.588;2022-08-11T09:37:59;39.60;33.90
26909;DHT22;14477;51.038;4.588;2022-08-11T09:40:48;39.80;34.70
26909;DHT22;14477;51.038;4.588;2022-08-11T09:43:17;40.00;33.20
26909;DHT22;14477;51.038;4.588;2022-08-11T09:46:02;40.10;33.20
26909;DHT22;14477;51.038;4.588;2022-08-11T09:48:37;40.30;33.00
26909;DHT22;14477;51.038;4.588;2022-08-11T09:51:05;40.40;32.00
26909;DHT22;14477;51.038;4.588;2022-08-11T09:53:35;40.60;31.00
26909;DHT22;14477;51.038;4.588;2022-08-11T09:56:02;40.70;31.00
26909;DHT22;14477;51.038;4.588;2022-08-11T09:58:48;40.80;31.30
26909;DHT22;14477;51.038;4.588;2022-08-11T10:01:16;40.90;31.10
26909;DHT22;14477;51.038;4.588;2022-08-11T10:03:57;41.20;30.20
26909;DHT22;14477;51.038;4.588;2022-08-11T10:06:26;41.30;29.30
26909;DHT22;14477;51.038;4.588;2022-08-11T10:09:11;41.40;29.50
26909;DHT22;14477;51.038;4.588;2022-08-11T10:11:39;41.50;29.30
26909;DHT22;14477;51.038;4.588;2022-08-11T10:14:06;41.60;29.00
26909;DHT22;14477;51.038;4.588;2022-08-11T10:16:51;41.60;28.90
26909;DHT22;14477;51.038;4.588;2022-08-11T10:19:18;41.80;29.10
26909;DHT22;14477;51.038;4.588;2022-08-11T10:21:50;42.00;28.60
26909;DHT22;14477;51.038;4.588;2022-08-11T10:24:34;42.20;28.10
26909;DHT22;14477;51.038;4.588;2022-08-11T10:27:19;42.20;28.60
26909;DHT22;14477;51.038;4.588;2022-08-11T10:29:45;42.40;27.70
26909;DHT22;14477;51.038;4.588;2022-08-11T10:32:30;42.40;27.70
26909;DHT22;14477;51.038;4.588;2022-08-11T10:35:15;42.50;27.40
26909;DHT22;14477;51.038;4.588;2022-08-11T10:37:44;42.60;27.00
26909;DHT22;14477;51.038;4.588;2022-08-11T10:40:16;42.70;26.60
26909;DHT22;14477;51.038;4.588;2022-08-11T10:42:42;42.70;26.20
26909;DHT22;14477;51.038;4.588;2022-08-11T10:45:32;42.80;26.60
26909;DHT22;14477;51.038;4.588;2022-08-11T10:48:20;42.90;26.40
26909;DHT22;14477;51.038;4.588;2022-08-11T10:50:47;42.90;26.20
26909;DHT22;14477;51.038;4.588;2022-08-11T10:53:33;43.10;26.30
26909;DHT22;14477;51.038;4.588;2022-08-11T10:56:19;43.20;26.20
26909;DHT22;14477;51.038;4.588;2022-08-11T10:59:05;43.30;26.10
26909;DHT22;14477;51.038;4.588;2022-08-11T11:01:35;43.50;25.90
26909;DHT22;14477;51.038;4.588;2022-08-11T11:04:32;43.70;25.90
26909;DHT22;14477;51.038;4.588;2022-08-11T11:07:20;43.80;25.00
26909;DHT22;14477;51.038;4.588;2022-08-11T11:09:51;43.90;24.60
26909;DHT22;14477;51.038;4.588;2022-08-11T11:15:17;44.20;24.60
26909;DHT22;14477;51.038;4.588;2022-08-11T11:18:08;44.30;24.70
26909;DHT22;14477;51.038;4.588;2022-08-11T11:29:21;44.60;24.30
26909;DHT22;14477;51.038;4.588;2022-08-11T11:32:20;44.70;23.60
26909;DHT22;14477;51.038;4.588;2022-08-11T11:37:29;44.70;23.20
26909;DHT22;14477;51.038;4.588;2022-08-11T11:39:57;44.80;23.60
26909;DHT22;14477;51.038;4.588;2022-08-11T11:42:24;44.80;23.70
26909;DHT22;14477;51.038;4.588;2022-08-11T11:44:53;44.90;23.60
26909;DHT22;14477;51.038;4.588;2022-08-11T11:47:20;45.00;23.50
26909;DHT22;14477;51.038;4.588;2022-08-11T11:49:47;45.10;23.30
26909;DHT22;14477;51.038;4.588;2022-08-11T11:52:19;45.10;23.30
26909;DHT22;14477;51.038;4.588;2022-08-11T11:54:46;45.20;22.90
26909;DHT22;14477;51.038;4.588;2022-08-11T11:57:17;45.20;23.10
26909;DHT22;14477;51.038;4.588;2022-08-11T12:00:03;45.30;22.90
26909;DHT22;14477;51.038;4.588;2022-08-11T12:02:49;45.40;22.80
26909;DHT22;14477;51.038;4.588;2022-08-11T12:05:16;45.50;22.80
26909;DHT22;14477;51.038;4.588;2022-08-11T12:07:43;45.60;22.50
26909;DHT22;14477;51.038;4.588;2022-08-11T12:10:28;45.60;22.40
26909;DHT22;14477;51.038;4.588;2022-08-11T12:12:55;45.60;22.20
26909;DHT22;14477;51.038;4.588;2022-08-11T12:15:39;45.70;22.10
26909;DHT22;14477;51.038;4.588;2022-08-11T12:18:05;45.70;21.70
26909;DHT22;14477;51.038;4.588;2022-08-11T12:20:31;45.70;21.60
26909;DHT22;14477;51.038;4.588;2022-08-11T12:22:57;45.70;21.60
26909;DHT22;14477;51.038;4.588;2022-08-11T12:25:42;45.70;21.60
26909;DHT22;14477;51.038;4.588;2022-08-11T12:28:28;45.60;21.50
26909;DHT22;14477;51.038;4.588;2022-08-11T12:31:03;45.60;21.30
26909;DHT22;14477;51.038;4.588;2022-08-11T12:33:29;45.60;20.80
26909;DHT22;14477;51.038;4.588;2022-08-11T12:35:58;45.60;21.40
26909;DHT22;14477;51.038;4.588;2022-08-11T12:38:25;45.60;21.00
26909;DHT22;14477;51.038;4.588;2022-08-11T12:40:52;45.60;21.00
26909;DHT22;14477;51.038;4.588;2022-08-11T12:43:38;45.60;20.80
26909;DHT22;14477;51.038;4.588;2022-08-11T12:46:32;45.60;20.70
26909;DHT22;14477;51.038;4.588;2022-08-11T12:49:09;45.60;20.60
26909;DHT22;14477;51.038;4.588;2022-08-11T12:51:55;45.60;20.20
26909;DHT22;14477;51.038;4.588;2022-08-11T12:57:32;45.50;20.00
26909;DHT22;14477;51.038;4.588;2022-08-11T13:00:18;45.50;20.50
26909;DHT22;14477;51.038;4.588;2022-08-11T13:03:06;45.50;20.50
26909;DHT22;14477;51.038;4.588;2022-08-11T13:05:53;45.50;20.10
26909;DHT22;14477;51.038;4.588;2022-08-11T13:08:22;45.40;20.00
26909;DHT22;14477;51.038;4.588;2022-08-11T13:10:50;45.40;20.20
26909;DHT22;14477;51.038;4.588;2022-08-11T13:13:37;45.40;20.00
26909;DHT22;14477;51.038;4.588;2022-08-11T13:16:05;45.30;19.90
26909;DHT22;14477;51.038;4.588;2022-08-11T13:18:33;45.20;19.80
26909;DHT22;14477;51.038;4.588;2022-08-11T13:20:59;45.20;19.80
26909;DHT22;14477;51.038;4.588;2022-08-11T13:23:25;45.10;19.90
26909;DHT22;14477;51.038;4.588;2022-08-11T13:25:54;45.10;19.80
26909;DHT22;14477;51.038;4.588;2022-08-11T13:28:23;45.20;19.80
26909;DHT22;14477;51.038;4.588;2022-08-11T13:30:49;45.20;19.70
26909;DHT22;14477;51.038;4.588;2022-08-11T13:33:42;45.20;19.70
26909;DHT22;14477;51.038;4.588;2022-08-11T13:36:10;45.20;19.60
26909;DHT22;14477;51.038;4.588;2022-08-11T13:38:37;45.20;19.40
26909;DHT22;14477;51.038;4.588;2022-08-11T13:41:05;45.10;19.30
26909;DHT22;14477;51.038;4.588;2022-08-11T13:43:54;45.10;19.50
26909;DHT22;14477;51.038;4.588;2022-08-11T13:46:22;45.00;19.40
26909;DHT22;14477;51.038;4.588;2022-08-11T13:48:53;44.90;19.30
26909;DHT22;14477;51.038;4.588;2022-08-11T13:51:20;44.80;19.20
26909;DHT22;14477;51.038;4.588;2022-08-11T13:53:59;44.80;19.40
26909;DHT22;14477;51.038;4.588;2022-08-11T13:56:26;44.60;19.60
26909;DHT22;14477;51.038;4.588;2022-08-11T13:58:54;44.60;19.40
26909;DHT22;14477;51.038;4.588;2022-08-11T14:01:20;44.40;19.10
26909;DHT22;14477;51.038;4.588;2022-08-11T14:03:49;44.20;19.10
26909;DHT22;14477;51.038;4.588;2022-08-11T14:06:17;43.90;19.10
26909;DHT22;14477;51.038;4.588;2022-08-11T14:08:45;43.70;19.10
26909;DHT22;14477;51.038;4.588;2022-08-11T14:11:12;43.60;19.60
26909;DHT22;14477;51.038;4.588;2022-08-11T14:13:58;43.40;19.50
26909;DHT22;14477;51.038;4.588;2022-08-11T14:16:31;43.30;19.60
26909;DHT22;14477;51.038;4.588;2022-08-11T14:19:02;43.20;19.60
26909;DHT22;14477;51.038;4.588;2022-08-11T14:21:32;43.20;19.90
26909;DHT22;14477;51.038;4.588;2022-08-11T14:24:19;43.20;19.90
26909;DHT22;14477;51.038;4.588;2022-08-11T14:26:47;43.20;20.60
26909;DHT22;14477;51.038;4.588;2022-08-11T14:29:16;43.20;20.10
26909;DHT22;14477;51.038;4.588;2022-08-11T14:31:49;43.20;20.20
26909;DHT22;14477;51.038;4.588;2022-08-11T14:34:18;43.30;20.10
26909;DHT22;14477;51.038;4.588;2022-08-11T14:36:54;43.20;20.00
26909;DHT22;14477;51.038;4.588;2022-08-11T14:39:25;43.20;20.20
26909;DHT22;14477;51.038;4.588;2022-08-11T14:41:56;43.10;19.90
26909;DHT22;14477;51.038;4.588;2022-08-11T14:45:11;43.00;20.10
26909;DHT22;14477;51.038;4.588;2022-08-11T14:47:59;42.90;20.10
26909;DHT22;14477;51.038;4.588;2022-08-11T14:50:31;42.70;20.10
26909;DHT22;14477;51.038;4.588;2022-08-11T14:53:08;42.60;20.00
26909;DHT22;14477;51.038;4.588;2022-08-11T14:55:37;42.60;19.90
26909;DHT22;14477;51.038;4.588;2022-08-11T14:58:24;42.50;20.20
26909;DHT22;14477;51.038;4.588;2022-08-11T15:00:53;42.30;20.10
26909;DHT22;14477;51.038;4.588;2022-08-11T15:03:20;42.20;20.20
26909;DHT22;14477;51.038;4.588;2022-08-11T15:08:14;42.00;20.20
26909;DHT22;14477;51.038;4.588;2022-08-11T15:10:41;41.90;20.10
26909;DHT22;14477;51.038;4.588;2022-08-11T15:13:07;41.80;20.40
26909;DHT22;14477;51.038;4.588;2022-08-11T15:15:33;41.60;20.40
26909;DHT22;14477;51.038;4.588;2022-08-11T15:18:20;41.50;20.50
26909;DHT22;14477;51.038;4.588;2022-08-11T15:20:49;41.40;20.50
26909;DHT22;14477;51.038;4.588;2022-08-11T15:23:34;41.20;20.50
26909;DHT22;14477;51.038;4.588;2022-08-11T15:26:27;41.00;20.50
26909;DHT22;14477;51.038;4.588;2022-08-11T15:29:14;40.80;20.50
26909;DHT22;14477;51.038;4.588;2022-08-11T15:32:00;40.60;20.50
26909;DHT22;14477;51.038;4.588;2022-08-11T15:35:01;40.40;20.40
26909;DHT22;14477;51.038;4.588;2022-08-11T15:37:50;40.20;20.70
26909;DHT22;14477;51.038;4.588;2022-08-11T15:40:33;40.00;20.50
26909;DHT22;14477;51.038;4.588;2022-08-11T15:43:28;39.90;20.50
26909;DHT22;14477;51.038;4.588;2022-08-11T15:46:22;39.70;20.50
26909;DHT22;14477;51.038;4.588;2022-08-11T15:49:00;39.50;20.70
26909;DHT22;14477;51.038;4.588;2022-08-11T15:51:35;39.30;20.80
26909;DHT22;14477;51.038;4.588;2022-08-11T15:54:22;39.20;21.00
26909;DHT22;14477;51.038;4.588;2022-08-11T15:56:49;39.10;21.10
26909;DHT22;14477;51.038;4.588;2022-08-11T15:59:18;39.00;21.10
26909;DHT22;14477;51.038;4.588;2022-08-11T16:02:07;38.90;21.20
26909;DHT22;14477;51.038;4.588;2022-08-11T16:04:57;38.80;21.00
26909;DHT22;14477;51.038;4.588;2022-08-11T16:07:27;38.70;21.00
26909;DHT22;14477;51.038;4.588;2022-08-11T16:10:11;38.70;21.00
26909;DHT22;14477;51.038;4.588;2022-08-11T16:12:59;38.60;21.40
26909;DHT22;14477;51.038;4.588;2022-08-11T16:15:44;38.40;21.50
26909;DHT22;14477;51.038;4.588;2022-08-11T16:18:33;38.40;21.30
26909;DHT22;14477;51.038;4.588;2022-08-11T16:21:33;38.40;21.20
26909;DHT22;14477;51.038;4.588;2022-08-11T16:24:00;38.30;21.10
26909;DHT22;14477;51.038;4.588;2022-08-11T16:26:26;38.20;21.80
26909;DHT22;14477;51.038;4.588;2022-08-11T16:28:55;38.20;21.40
26909;DHT22;14477;51.038;4.588;2022-08-11T16:31:23;38.10;21.20
26909;DHT22;14477;51.038;4.588;2022-08-11T16:33:50;38.10;21.30
26909;DHT22;14477;51.038;4.588;2022-08-11T16:36:18;38.00;21.60
26909;DHT22;14477;51.038;4.588;2022-08-11T16:39:04;38.00;21.80
26909;DHT22;14477;51.038;4.588;2022-08-11T16:41:33;37.90;21.70
26909;DHT22;14477;51.038;4.588;2022-08-11T16:44:19;37.90;21.60
26909;DHT22;14477;51.038;4.588;2022-08-11T16:47:06;37.80;21.70
26909;DHT22;14477;51.038;4.588;2022-08-11T16:49:41;37.80;21.90
26909;DHT22;14477;51.038;4.588;2022-08-11T16:52:08;37.70;21.90
26909;DHT22;14477;51.038;4.588;2022-08-11T16:54:37;37.70;21.90
26909;DHT22;14477;51.038;4.588;2022-08-11T16:57:06;37.60;21.90
26909;DHT22;14477;51.038;4.588;2022-08-11T16:59:52;37.60;22.10
26909;DHT22;14477;51.038;4.588;2022-08-11T17:02:21;37.50;22.10
26909;DHT22;14477;51.038;4.588;2022-08-11T17:05:16;37.50;22.20
26909;DHT22;14477;51.038;4.588;2022-08-11T17:08:03;37.40;22.60
26909;DHT22;14477;51.038;4.588;2022-08-11T17:10:51;37.40;22.50
26909;DHT22;14477;51.038;4.588;2022-08-11T17:13:54;37.30;22.50
26909;DHT22;14477;51.038;4.588;2022-08-11T17:16:28;37.20;23.60
26909;DHT22;14477;51.038;4.588;2022-08-11T17:21:32;37.10;23.10
26909;DHT22;14477;51.038;4.588;2022-08-11T17:24:09;37.00;23.00
26909;DHT22;14477;51.038;4.588;2022-08-11T17:26:45;36.90;23.10
26909;DHT22;14477;51.038;4.588;2022-08-11T17:29:41;36.80;23.10
26909;DHT22;14477;51.038;4.588;2022-08-11T17:32:17;36.70;23.20
26909;DHT22;14477;51.038;4.588;2022-08-11T17:35:08;36.70;23.40
26909;DHT22;14477;51.038;4.588;2022-08-11T17:37:55;36.60;23.30
26909;DHT22;14477;51.038;4.588;2022-08-11T17:40:22;36.50;23.30
26909;DHT22;14477;51.038;4.588;2022-08-11T17:42:54;36.40;23.50
26909;DHT22;14477;51.038;4.588;2022-08-11T17:45:44;36.30;23.70
26909;DHT22;14477;51.038;4.588;2022-08-11T17:48:30;36.30;23.80
26909;DHT22;14477;51.038;4.588;2022-08-11T17:51:14;36.20;23.80
26909;DHT22;14477;51.038;4.588;2022-08-11T17:54:03;36.10;23.80
26909;DHT22;14477;51.038;4.588;2022-08-11T17:56:48;36.00;23.80
26909;DHT22;14477;51.038;4.588;2022-08-11T17:59:33;35.90;23.90
26909;DHT22;14477;51.038;4.588;2022-08-11T18:02:38;35.80;23.80
26909;DHT22;14477;51.038;4.588;2022-08-11T18:05:30;35.80;24.00
26909;DHT22;14477;51.038;4.588;2022-08-11T18:07:58;35.70;23.80
26909;DHT22;14477;51.038;4.588;2022-08-11T18:10:44;35.60;23.90
26909;DHT22;14477;51.038;4.588;2022-08-11T18:13:32;35.50;23.90
26909;DHT22;14477;51.038;4.588;2022-08-11T18:16:18;35.40;24.00
26909;DHT22;14477;51.038;4.588;2022-08-11T18:19:04;35.30;24.10
26909;DHT22;14477;51.038;4.588;2022-08-11T18:21:50;35.20;24.20
26909;DHT22;14477;51.038;4.588;2022-08-11T18:24:39;35.10;24.40
26909;DHT22;14477;51.038;4.588;2022-08-11T18:27:27;34.90;24.40
26909;DHT22;14477;51.038;4.588;2022-08-11T18:30:13;34.80;24.50
26909;DHT22;14477;51.038;4.588;2022-08-11T18:33:00;34.70;24.60
26909;DHT22;14477;51.038;4.588;2022-08-11T18:35:52;34.60;24.80
26909;DHT22;14477;51.038;4.588;2022-08-11T18:38:38;34.40;25.00
26909;DHT22;14477;51.038;4.588;2022-08-11T18:41:26;34.30;25.00
26909;DHT22;14477;51.038;4.588;2022-08-11T18:44:13;34.20;25.30
26909;DHT22;14477;51.038;4.588;2022-08-11T18:47:03;34.10;25.30
26909;DHT22;14477;51.038;4.588;2022-08-11T18:49:52;34.00;25.70
26909;DHT22;14477;51.038;4.588;2022-08-11T18:52:40;33.80;26.00
26909;DHT22;14477;51.038;4.588;2022-08-11T18:55:27;33.70;25.90
26909;DHT22;14477;51.038;4.588;2022-08-11T18:58:14;33.60;26.00
26909;DHT22;14477;51.038;4.588;2022-08-11T19:01:01;33.40;26.80
26909;DHT22;14477;51.038;4.588;2022-08-11T19:03:49;33.30;26.30
26909;DHT22;14477;51.038;4.588;2022-08-11T19:06:37;33.10;26.30
26909;DHT22;14477;51.038;4.588;2022-08-11T19:09:23;33.00;26.50
26909;DHT22;14477;51.038;4.588;2022-08-11T19:12:10;32.90;26.70
26909;DHT22;14477;51.038;4.588;2022-08-11T19:14:56;32.70;26.90
26909;DHT22;14477;51.038;4.588;2022-08-11T19:17:43;32.60;27.00
26909;DHT22;14477;51.038;4.588;2022-08-11T19:20:30;32.50;27.20
26909;DHT22;14477;51.038;4.588;2022-08-11T19:23:19;32.40;27.30
26909;DHT22;14477;51.038;4.588;2022-08-11T19:26:08;32.20;27.30
26909;DHT22;14477;51.038;4.588;2022-08-11T19:28:54;32.10;27.40
26909;DHT22;14477;51.038;4.588;2022-08-11T19:31:40;32.00;27.70
26909;DHT22;14477;51.038;4.588;2022-08-11T19:34:25;31.80;27.60
26909;DHT22;14477;51.038;4.588;2022-08-11T19:37:10;31.70;27.80
26909;DHT22;14477;51.038;4.588;2022-08-11T19:40:05;31.60;27.90
26909;DHT22;14477;51.038;4.588;2022-08-11T19:42:51;31.50;28.60
26909;DHT22;14477;51.038;4.588;2022-08-11T19:45:37;31.40;28.20
26909;DHT22;14477;51.038;4.588;2022-08-11T19:48:24;31.30;28.40
26909;DHT22;14477;51.038;4.588;2022-08-11T19:51:10;31.10;28.60
26909;DHT22;14477;51.038;4.588;2022-08-11T19:53:55;31.00;28.60
26909;DHT22;14477;51.038;4.588;2022-08-11T19:56:41;30.90;28.80
26909;DHT22;14477;51.038;4.588;2022-08-11T19:59:27;30.80;28.90
26909;DHT22;14477;51.038;4.588;2022-08-11T20:02:12;30.60;28.90
26909;DHT22;14477;51.038;4.588;2022-08-11T20:04:57;30.50;29.10
26909;DHT22;14477;51.038;4.588;2022-08-11T20:07:41;30.40;29.20
26909;DHT22;14477;51.038;4.588;2022-08-11T20:10:27;30.30;29.30
26909;DHT22;14477;51.038;4.588;2022-08-11T20:13:13;30.20;29.50
26909;DHT22;14477;51.038;4.588;2022-08-11T20:15:59;30.00;29.50
26909;DHT22;14477;51.038;4.588;2022-08-11T20:18:45;29.90;29.70